createdAt,value
2017-08-31T00:00:13.121Z,8.27
2017-08-31T00:02:40.599Z,8.87
2017-08-31T00:05:08.069Z,7.40
2017-08-31T00:07:35.544Z,8.00
2017-08-31T00:10:03.008Z,8.53
2017-08-31T00:12:30.483Z,9.47
2017-08-31T00:14:57.958Z,8.27
2017-08-31T00:17:25.428Z,7.70
2017-08-31T00:19:52.905Z,8.97
2017-08-31T00:22:21.149Z,9.13
2017-08-31T00:24:48.617Z,8.77
2017-08-31T00:27:16.089Z,8.77
2017-08-31T00:29:44.319Z,9.10
2017-08-31T00:32:11.804Z,8.60
2017-08-31T00:34:39.269Z,9.37
2017-08-31T00:37:06.748Z,8.20
2017-08-31T00:39:34.220Z,9.97
2017-08-31T00:42:01.695Z,8.33
2017-08-31T00:44:29.160Z,9.10
2017-08-31T00:46:56.629Z,8.83
2017-08-31T00:49:24.105Z,7.40
2017-08-31T00:51:51.569Z,8.77
2017-08-31T00:54:19.054Z,8.60
2017-08-31T00:56:46.525Z,8.37
2017-08-31T00:59:14.008Z,8.47
2017-08-31T01:01:41.471Z,7.83
2017-08-31T01:04:08.941Z,8.00
2017-08-31T01:09:29.477Z,8.40
2017-08-31T01:11:56.940Z,9.13
2017-08-31T01:14:24.422Z,7.80
2017-08-31T01:16:51.897Z,8.30
2017-08-31T01:19:20.147Z,7.60
2017-08-31T01:21:47.617Z,8.60
2017-08-31T01:24:15.093Z,7.50
2017-08-31T01:26:42.565Z,8.43
2017-08-31T01:29:10.094Z,8.97
2017-08-31T01:31:37.564Z,8.10
2017-08-31T01:34:05.044Z,7.80
2017-08-31T01:36:32.508Z,8.83
2017-08-31T01:38:59.990Z,8.40
2017-08-31T01:41:27.454Z,7.93
2017-08-31T01:46:28.931Z,8.07
2017-08-31T01:48:56.417Z,8.40
2017-08-31T01:51:23.885Z,8.70
2017-08-31T01:53:51.354Z,8.00
2017-08-31T01:56:18.823Z,7.80
2017-08-31T01:58:46.296Z,9.00
2017-08-31T02:01:13.781Z,7.80
2017-08-31T02:03:41.257Z,8.30
2017-08-31T02:06:08.735Z,7.20
2017-08-31T02:08:36.197Z,8.20
2017-08-31T02:11:03.684Z,8.57
2017-08-31T02:13:31.152Z,8.70
2017-08-31T02:15:58.637Z,8.97
2017-08-31T02:18:26.104Z,9.23
2017-08-31T02:20:53.590Z,9.07
2017-08-31T02:23:21.069Z,9.20
2017-08-31T02:25:48.549Z,9.20
2017-08-31T02:28:16.014Z,8.30
2017-08-31T02:30:43.502Z,8.80
2017-08-31T02:33:11.004Z,8.53
2017-08-31T02:35:38.480Z,7.53
2017-08-31T02:38:05.960Z,8.10
2017-08-31T02:40:33.441Z,9.00
2017-08-31T02:43:00.924Z,9.53
2017-08-31T02:45:28.392Z,9.40
2017-08-31T02:47:55.890Z,8.37
2017-08-31T02:50:23.376Z,8.70
2017-08-31T02:52:50.849Z,8.83
2017-08-31T02:55:18.315Z,7.87
2017-08-31T02:57:45.778Z,8.70
2017-08-31T03:00:13.252Z,8.20
2017-08-31T03:02:40.724Z,7.30
2017-08-31T03:05:08.183Z,7.67
2017-08-31T03:07:35.654Z,7.20
2017-08-31T03:10:03.124Z,7.07
2017-08-31T03:12:30.586Z,9.20
2017-08-31T03:14:58.049Z,7.60
2017-08-31T03:17:25.523Z,8.93
2017-08-31T03:19:52.990Z,8.00
2017-08-31T03:22:20.467Z,7.63
2017-08-31T03:24:47.931Z,6.90
2017-08-31T03:27:15.405Z,6.90
2017-08-31T03:29:42.876Z,7.53
2017-08-31T03:32:10.340Z,8.50
2017-08-31T03:34:37.815Z,8.00
2017-08-31T03:37:05.280Z,7.80
2017-08-31T03:39:32.751Z,7.67
2017-08-31T03:42:00.218Z,7.63
2017-08-31T03:44:27.679Z,7.00
2017-08-31T03:46:55.148Z,8.03
2017-08-31T03:49:22.628Z,7.63
2017-08-31T03:51:50.091Z,7.60
2017-08-31T03:54:17.561Z,7.90
2017-08-31T03:56:45.023Z,8.43
2017-08-31T03:59:12.495Z,8.47
2017-08-31T04:01:39.968Z,7.60
2017-08-31T04:04:07.440Z,8.60
2017-08-31T04:06:35.683Z,7.87
2017-08-31T04:09:03.152Z,7.93
2017-08-31T04:11:30.623Z,7.03
2017-08-31T04:13:58.087Z,7.83
2017-08-31T04:16:26.325Z,7.90
2017-08-31T04:18:53.792Z,7.27
2017-08-31T04:21:21.255Z,7.37
2017-08-31T04:23:48.715Z,8.47
2017-08-31T04:26:16.188Z,8.03
2017-08-31T04:28:43.652Z,7.40
2017-08-31T04:31:11.122Z,7.87
2017-08-31T04:33:38.593Z,6.83
2017-08-31T04:36:06.070Z,7.80
2017-08-31T04:38:33.543Z,7.57
2017-08-31T04:41:01.012Z,7.10
2017-08-31T04:43:28.471Z,6.43
2017-08-31T04:45:55.947Z,6.70
2017-08-31T04:48:23.410Z,6.73
2017-08-31T04:50:50.888Z,6.83
2017-08-31T04:53:18.347Z,7.67
2017-08-31T04:55:45.823Z,6.40
2017-08-31T04:58:13.282Z,7.10
2017-08-31T05:00:40.760Z,6.47
2017-08-31T05:03:08.226Z,6.67
2017-08-31T05:05:35.691Z,6.50
2017-08-31T05:08:03.168Z,7.17
2017-08-31T05:10:30.633Z,6.67
2017-08-31T05:12:58.097Z,6.47
2017-08-31T05:15:25.559Z,5.80
2017-08-31T05:17:53.030Z,5.80
2017-08-31T05:20:20.488Z,6.00
2017-08-31T05:22:47.966Z,5.70
2017-08-31T05:25:15.429Z,6.47
2017-08-31T05:27:42.900Z,6.03
2017-08-31T05:30:10.361Z,6.13
2017-08-31T05:32:37.830Z,6.70
2017-08-31T05:35:05.287Z,5.10
2017-08-31T05:37:32.758Z,6.43
2017-08-31T05:40:00.227Z,5.53
2017-08-31T05:42:27.692Z,5.20
2017-08-31T05:44:55.162Z,6.53
2017-08-31T05:47:22.627Z,5.00
2017-08-31T05:49:50.661Z,5.40
2017-08-31T05:52:18.103Z,5.60
2017-08-31T05:54:45.567Z,5.77
2017-08-31T05:57:13.035Z,6.10
2017-08-31T05:59:40.499Z,6.00
2017-08-31T06:02:07.965Z,6.60
2017-08-31T06:04:35.435Z,5.57
2017-08-31T06:07:02.895Z,6.87
2017-08-31T06:09:30.368Z,5.50
2017-08-31T06:11:57.823Z,5.80
2017-08-31T06:14:25.292Z,6.27
2017-08-31T06:16:52.752Z,5.47
2017-08-31T06:19:20.236Z,5.67
2017-08-31T06:21:47.695Z,6.40
2017-08-31T06:24:15.171Z,5.60
2017-08-31T06:26:42.645Z,5.87
2017-08-31T06:29:10.107Z,5.47
2017-08-31T06:31:37.575Z,5.60
2017-08-31T06:34:05.040Z,5.67
2017-08-31T06:36:33.283Z,5.50
2017-08-31T06:39:00.751Z,5.70
2017-08-31T06:41:28.222Z,6.57
2017-08-31T06:43:55.675Z,6.27
2017-08-31T06:46:23.143Z,6.10
2017-08-31T06:48:51.367Z,6.10
2017-08-31T06:51:18.841Z,5.63
2017-08-31T06:53:46.299Z,5.70
2017-08-31T06:56:13.764Z,5.60
2017-08-31T06:58:41.222Z,5.80
2017-08-31T07:01:08.692Z,5.30
2017-08-31T07:03:36.156Z,5.27
2017-08-31T07:06:03.615Z,5.60
2017-08-31T07:08:31.087Z,5.97
2017-08-31T07:10:58.553Z,4.87
2017-08-31T07:13:26.015Z,5.60
2017-08-31T07:15:53.475Z,4.83
2017-08-31T07:18:20.934Z,5.77
2017-08-31T07:20:48.400Z,5.60
2017-08-31T07:23:15.872Z,5.20
2017-08-31T07:25:43.335Z,4.90
2017-08-31T07:28:10.812Z,4.63
2017-08-31T07:30:38.271Z,5.80
2017-08-31T07:33:05.744Z,5.00
2017-08-31T07:35:33.203Z,5.00
2017-08-31T07:38:00.670Z,4.80
2017-08-31T07:40:28.132Z,4.87
2017-08-31T07:42:55.609Z,5.23
2017-08-31T07:45:23.831Z,4.57
2017-08-31T07:47:51.311Z,4.73
2017-08-31T07:50:18.779Z,5.57
2017-08-31T07:52:46.240Z,4.37
2017-08-31T07:55:13.715Z,5.03
2017-08-31T07:57:41.184Z,4.77
2017-08-31T08:00:09.416Z,4.40
2017-08-31T08:02:36.873Z,4.80
2017-08-31T08:05:04.344Z,5.13
2017-08-31T08:07:31.804Z,5.40
2017-08-31T08:09:59.276Z,4.13
2017-08-31T08:12:26.730Z,4.27
2017-08-31T08:14:54.200Z,4.10
2017-08-31T08:17:21.659Z,4.30
2017-08-31T08:19:49.135Z,4.13
2017-08-31T08:22:16.604Z,4.07
2017-08-31T08:24:44.062Z,5.03
2017-08-31T08:27:11.518Z,3.97
2017-08-31T08:29:39.007Z,4.03
2017-08-31T08:32:06.469Z,4.60
2017-08-31T08:34:33.935Z,4.40
2017-08-31T08:37:01.399Z,3.70
2017-08-31T08:39:28.872Z,4.07
2017-08-31T08:41:56.337Z,4.33
2017-08-31T08:44:23.802Z,4.07
2017-08-31T08:46:51.275Z,4.23
2017-08-31T08:49:18.735Z,4.37
2017-08-31T08:51:46.214Z,4.60
2017-08-31T08:54:13.672Z,4.43
2017-08-31T08:56:41.147Z,5.77
2017-08-31T08:59:08.606Z,8.40
2017-08-31T09:01:36.079Z,6.50
2017-08-31T09:04:03.543Z,7.10
2017-08-31T09:06:31.024Z,8.57
2017-08-31T09:08:58.483Z,9.80
2017-08-31T09:11:25.963Z,10.80
2017-08-31T09:13:53.436Z,10.50
2017-08-31T09:16:20.904Z,10.00
2017-08-31T09:18:48.367Z,10.93
2017-08-31T09:21:15.852Z,8.77
2017-08-31T09:23:43.317Z,9.03
2017-08-31T09:26:10.787Z,9.80
2017-08-31T09:28:38.244Z,8.63
2017-08-31T09:31:05.711Z,8.00
2017-08-31T09:33:33.179Z,7.60
2017-08-31T09:36:00.646Z,7.80
2017-08-31T09:38:28.115Z,8.20
2017-08-31T09:40:55.583Z,6.77
2017-08-31T09:43:23.050Z,7.13
2017-08-31T09:45:50.511Z,7.10
2017-08-31T09:48:17.979Z,5.97
2017-08-31T09:50:45.439Z,4.63
2017-08-31T09:53:12.911Z,5.30
2017-08-31T09:55:40.367Z,5.50
2017-08-31T09:58:07.831Z,5.10
2017-08-31T10:00:35.308Z,5.80
2017-08-31T10:03:02.784Z,4.73
2017-08-31T10:05:30.235Z,4.37
2017-08-31T10:07:57.707Z,3.80
2017-08-31T10:10:25.172Z,3.73
2017-08-31T10:12:52.639Z,3.60
2017-08-31T10:15:20.096Z,3.10
2017-08-31T10:17:47.570Z,3.00
2017-08-31T10:20:15.319Z,3.10
2017-08-31T10:22:42.795Z,2.77
2017-08-31T10:25:10.260Z,3.37
2017-08-31T10:27:37.716Z,2.87
2017-08-31T10:30:05.194Z,2.87
2017-08-31T10:32:32.652Z,2.73
2017-08-31T10:35:00.121Z,2.17
2017-08-31T10:37:27.589Z,2.73
2017-08-31T10:39:55.051Z,2.10
2017-08-31T10:42:22.514Z,2.80
2017-08-31T10:44:49.978Z,3.00
2017-08-31T10:47:17.440Z,2.60
2017-08-31T10:49:44.917Z,2.97
2017-08-31T10:52:12.708Z,2.73
2017-08-31T10:54:40.173Z,3.00
2017-08-31T10:57:07.631Z,2.87
2017-08-31T10:59:35.113Z,3.20
2017-08-31T11:02:02.576Z,3.60
2017-08-31T11:04:30.057Z,3.27
2017-08-31T11:06:57.511Z,2.70
2017-08-31T11:09:24.988Z,2.80
2017-08-31T11:11:52.463Z,2.93
2017-08-31T11:14:19.931Z,2.20
2017-08-31T11:16:47.403Z,2.60
2017-08-31T11:19:14.858Z,2.50
2017-08-31T11:21:42.349Z,2.63
2017-08-31T11:24:09.819Z,2.30
2017-08-31T11:26:37.290Z,2.37
2017-08-31T11:29:04.935Z,2.20
2017-08-31T11:31:32.265Z,2.03
2017-08-31T11:33:59.791Z,1.80
2017-08-31T11:36:27.257Z,1.90
2017-08-31T11:38:54.630Z,2.03
2017-08-31T11:41:22.100Z,2.17
2017-08-31T11:43:49.556Z,1.83
2017-08-31T11:46:17.024Z,2.23
2017-08-31T11:48:44.482Z,1.60
2017-08-31T11:51:11.948Z,1.47
2017-08-31T11:53:39.411Z,1.77
2017-08-31T11:56:06.881Z,1.67
2017-08-31T11:58:34.343Z,1.77
2017-08-31T12:01:01.816Z,1.80
2017-08-31T12:03:29.276Z,1.77
2017-08-31T12:05:56.789Z,1.57
2017-08-31T12:08:24.239Z,1.70
2017-08-31T12:10:51.719Z,1.87
2017-08-31T12:13:19.200Z,2.20
2017-08-31T12:15:46.664Z,2.77
2017-08-31T12:18:14.124Z,2.40
2017-08-31T12:20:41.591Z,3.23
2017-08-31T12:23:09.057Z,3.10
2017-08-31T12:25:36.516Z,4.00
2017-08-31T12:28:03.981Z,3.73
2017-08-31T12:30:31.435Z,4.00
2017-08-31T12:32:58.913Z,3.27
2017-08-31T12:35:26.373Z,3.90
2017-08-31T12:37:53.839Z,4.00
2017-08-31T12:40:21.304Z,3.77
2017-08-31T12:42:49.648Z,3.23
2017-08-31T12:45:17.112Z,3.30
2017-08-31T12:47:44.572Z,2.60
2017-08-31T12:50:12.042Z,2.57
2017-08-31T12:52:39.512Z,2.90
2017-08-31T12:55:06.974Z,2.60
2017-08-31T12:57:34.437Z,3.20
2017-08-31T13:00:01.900Z,2.57
2017-08-31T13:02:29.354Z,2.30
2017-08-31T13:04:56.819Z,2.50
2017-08-31T13:07:24.278Z,2.23
2017-08-31T13:09:51.751Z,2.70
2017-08-31T13:12:19.211Z,2.47
2017-08-31T13:14:46.687Z,1.63
2017-08-31T13:17:14.154Z,1.57
2017-08-31T13:19:41.616Z,1.20
2017-08-31T13:22:09.459Z,1.73
2017-08-31T13:24:36.916Z,1.70
2017-08-31T13:27:04.381Z,1.40
2017-08-31T13:29:31.843Z,1.50
2017-08-31T13:31:59.315Z,1.47
2017-08-31T13:34:26.780Z,1.40
2017-08-31T13:36:54.240Z,1.60
2017-08-31T13:39:21.707Z,1.70
2017-08-31T13:41:49.164Z,1.60
2017-08-31T13:44:17.402Z,1.43
2017-08-31T13:46:44.961Z,1.60
2017-08-31T13:49:12.466Z,1.23
2017-08-31T13:51:39.954Z,1.57
2017-08-31T13:54:07.436Z,1.40
2017-08-31T13:56:34.900Z,1.40
2017-08-31T13:59:02.375Z,2.17
2017-08-31T14:01:29.834Z,1.70
2017-08-31T14:03:57.312Z,1.53
2017-08-31T14:06:24.772Z,1.40
2017-08-31T14:08:52.231Z,1.40
2017-08-31T14:11:19.703Z,2.10
2017-08-31T14:13:47.164Z,1.90
2017-08-31T14:16:14.632Z,1.70
2017-08-31T14:18:42.854Z,2.40
2017-08-31T14:21:10.318Z,2.47
2017-08-31T14:23:37.784Z,2.63
2017-08-31T14:26:05.256Z,1.93
2017-08-31T14:28:32.716Z,1.87
2017-08-31T14:31:00.187Z,1.83
2017-08-31T14:33:27.647Z,1.70
2017-08-31T14:35:55.114Z,1.60
2017-08-31T14:38:22.568Z,1.80
2017-08-31T14:40:50.031Z,1.97
2017-08-31T14:43:17.883Z,1.83
2017-08-31T14:45:45.356Z,1.40
2017-08-31T14:48:12.815Z,2.00
2017-08-31T14:50:40.289Z,1.80
2017-08-31T14:53:07.751Z,1.40
2017-08-31T14:55:35.212Z,1.27
2017-08-31T14:58:02.691Z,1.67
2017-08-31T15:00:30.146Z,1.60
2017-08-31T15:02:57.621Z,2.57
2017-08-31T15:05:25.079Z,1.77
2017-08-31T15:07:52.544Z,1.50
2017-08-31T15:10:20.003Z,2.23
2017-08-31T15:12:47.473Z,2.10
2017-08-31T15:15:14.935Z,2.60
2017-08-31T15:17:42.407Z,2.10
2017-08-31T15:20:09.863Z,1.47
2017-08-31T15:22:37.335Z,2.00
2017-08-31T15:25:04.803Z,2.43
2017-08-31T15:27:32.273Z,1.67
2017-08-31T15:29:59.732Z,1.63
2017-08-31T15:32:27.209Z,1.50
2017-08-31T15:34:54.671Z,1.43
2017-08-31T15:37:22.131Z,1.57
2017-08-31T15:39:49.599Z,1.20
2017-08-31T15:42:17.063Z,0.97
2017-08-31T15:44:44.527Z,0.90
2017-08-31T15:47:11.988Z,1.00
2017-08-31T15:49:39.460Z,1.03
2017-08-31T15:52:06.916Z,0.90
2017-08-31T15:54:34.394Z,0.80
2017-08-31T15:57:02.619Z,1.20
2017-08-31T15:59:30.088Z,1.60
2017-08-31T16:01:57.551Z,0.90
2017-08-31T16:04:25.011Z,1.07
2017-08-31T16:06:52.471Z,1.03
2017-08-31T16:09:19.936Z,1.00
2017-08-31T16:11:47.396Z,1.03
2017-08-31T16:14:14.860Z,0.93
2017-08-31T16:16:42.317Z,1.10
2017-08-31T16:19:09.786Z,0.90
2017-08-31T16:21:37.256Z,0.70
2017-08-31T16:24:04.722Z,0.50
2017-08-31T16:26:32.182Z,0.97
2017-08-31T16:28:59.647Z,0.90
2017-08-31T16:31:27.111Z,0.70
2017-08-31T16:33:54.579Z,0.60
2017-08-31T16:36:22.068Z,0.70
2017-08-31T16:38:49.536Z,1.00
2017-08-31T16:41:17.000Z,1.13
2017-08-31T16:43:44.463Z,1.10
2017-08-31T16:46:11.931Z,0.80
2017-08-31T16:48:39.400Z,0.90
2017-08-31T16:51:06.864Z,0.67
2017-08-31T16:53:34.331Z,0.63
2017-08-31T16:56:01.795Z,0.60
2017-08-31T16:58:29.253Z,0.60
2017-08-31T17:00:56.724Z,0.80
2017-08-31T17:03:24.470Z,0.77
2017-08-31T17:05:51.932Z,0.73
2017-08-31T17:08:19.388Z,0.70
2017-08-31T17:10:46.851Z,0.77
2017-08-31T17:13:14.319Z,0.50
2017-08-31T17:15:41.796Z,0.70
2017-08-31T17:18:09.268Z,0.70
2017-08-31T17:20:36.728Z,0.80
2017-08-31T17:23:04.197Z,1.20
2017-08-31T17:25:31.652Z,0.73
2017-08-31T17:27:59.118Z,0.93
2017-08-31T17:30:26.585Z,1.63
2017-08-31T17:32:54.052Z,1.10
2017-08-31T17:35:21.523Z,1.10
2017-08-31T17:37:48.995Z,0.97
2017-08-31T17:40:16.674Z,0.80
2017-08-31T17:42:44.146Z,0.80
2017-08-31T17:45:11.599Z,0.90
2017-08-31T17:47:39.063Z,1.03
2017-08-31T17:50:06.523Z,1.20
2017-08-31T17:52:33.996Z,0.70
2017-08-31T17:55:01.451Z,0.77
2017-08-31T17:57:28.914Z,0.90
2017-08-31T17:59:56.376Z,1.10
2017-08-31T18:02:23.849Z,0.83
2017-08-31T18:04:51.307Z,1.30
2017-08-31T18:07:18.776Z,0.80
2017-08-31T18:09:46.238Z,0.90
2017-08-31T18:12:13.738Z,1.07
2017-08-31T18:14:41.204Z,1.20
2017-08-31T18:17:08.667Z,1.43
2017-08-31T18:19:36.143Z,1.10
2017-08-31T18:22:03.604Z,1.17
2017-08-31T18:24:31.072Z,1.23
2017-08-31T18:26:58.536Z,1.73
2017-08-31T18:29:25.991Z,1.97
2017-08-31T18:31:53.457Z,2.40
2017-08-31T18:34:20.919Z,2.40
2017-08-31T18:36:48.389Z,1.93
2017-08-31T18:39:15.941Z,2.53
2017-08-31T18:41:43.974Z,2.17
2017-08-31T18:44:12.788Z,2.70
2017-08-31T18:46:40.922Z,1.93
2017-08-31T18:49:09.066Z,2.20
2017-08-31T18:51:37.083Z,2.40
2017-08-31T18:54:04.628Z,2.47
2017-08-31T18:56:32.088Z,2.53
2017-08-31T18:58:59.551Z,2.87
2017-08-31T19:01:27.012Z,2.13
2017-08-31T19:03:54.483Z,2.70
2017-08-31T19:06:21.951Z,2.40
2017-08-31T19:08:49.409Z,2.10
2017-08-31T19:11:16.901Z,2.27
2017-08-31T19:13:44.360Z,2.87
2017-08-31T19:16:11.831Z,2.57
2017-08-31T19:18:39.283Z,3.00
2017-08-31T19:21:06.758Z,3.10
2017-08-31T19:23:34.223Z,2.97
2017-08-31T19:26:01.688Z,3.17
2017-08-31T19:28:29.147Z,3.00
2017-08-31T19:30:56.620Z,3.00
2017-08-31T19:33:24.092Z,2.70
2017-08-31T19:35:51.564Z,3.53
2017-08-31T19:38:19.023Z,2.40
2017-08-31T19:40:46.505Z,3.00
2017-08-31T19:43:13.964Z,2.97
2017-08-31T19:45:41.432Z,2.93
2017-08-31T19:48:08.900Z,2.83
2017-08-31T19:50:36.367Z,2.50
2017-08-31T19:53:03.826Z,3.40
2017-08-31T19:55:31.298Z,3.67
2017-08-31T19:57:58.767Z,3.20
2017-08-31T20:00:26.235Z,3.00
2017-08-31T20:02:53.699Z,2.50
2017-08-31T20:05:21.172Z,2.70
2017-08-31T20:07:48.638Z,3.20
2017-08-31T20:10:16.103Z,2.70
2017-08-31T20:12:43.567Z,2.60
2017-08-31T20:15:11.027Z,3.07
2017-08-31T20:17:38.491Z,3.20
2017-08-31T20:20:05.972Z,3.10
2017-08-31T20:22:33.440Z,3.33
2017-08-31T20:25:01.090Z,3.10
2017-08-31T20:27:28.560Z,2.97
2017-08-31T20:29:56.018Z,3.20
2017-08-31T20:32:23.486Z,2.80
2017-08-31T20:34:50.949Z,3.00
2017-08-31T20:37:19.176Z,2.53
2017-08-31T20:39:46.639Z,3.97
2017-08-31T20:42:14.107Z,3.40
2017-08-31T20:44:41.567Z,3.30
2017-08-31T20:47:09.038Z,2.57
2017-08-31T20:49:36.495Z,2.87
2017-08-31T20:52:03.964Z,2.93
2017-08-31T20:54:31.427Z,3.20
2017-08-31T20:56:58.939Z,3.33
2017-08-31T20:59:26.443Z,3.60
2017-08-31T21:01:53.917Z,3.50
2017-08-31T21:04:21.379Z,3.20
2017-08-31T21:06:48.847Z,4.23
2017-08-31T21:09:16.307Z,3.60
2017-08-31T21:11:43.777Z,4.57
2017-08-31T21:14:11.242Z,4.80
2017-08-31T21:16:38.699Z,4.77
2017-08-31T21:19:06.172Z,4.80
2017-08-31T21:21:33.643Z,4.30
2017-08-31T21:24:01.142Z,5.60
2017-08-31T21:26:28.609Z,4.77
2017-08-31T21:28:56.068Z,4.17
2017-08-31T21:31:23.564Z,4.20
2017-08-31T21:33:51.019Z,4.80
2017-08-31T21:36:18.490Z,4.77
2017-08-31T21:38:45.958Z,4.70
2017-08-31T21:41:13.422Z,4.80
2017-08-31T21:43:40.913Z,4.30
2017-08-31T21:46:08.351Z,4.30
2017-08-31T21:48:35.823Z,4.43
2017-08-31T21:51:03.280Z,4.53
2017-08-31T21:53:30.747Z,4.10
2017-08-31T21:55:58.208Z,4.50
2017-08-31T21:58:25.671Z,4.63
2017-08-31T22:00:53.136Z,4.80
2017-08-31T22:03:20.604Z,4.57
2017-08-31T22:05:48.060Z,4.60
2017-08-31T22:08:15.530Z,4.03
2017-08-31T22:10:42.999Z,4.20
2017-08-31T22:13:10.472Z,3.80
2017-08-31T22:15:37.927Z,4.33
2017-08-31T22:18:06.166Z,3.87
2017-08-31T22:20:33.639Z,5.20
2017-08-31T22:23:01.103Z,5.20
2017-08-31T22:25:28.567Z,5.03
2017-08-31T22:27:56.037Z,5.30
2017-08-31T22:30:23.526Z,5.60
2017-08-31T22:32:50.979Z,5.50
2017-08-31T22:35:19.211Z,6.60
2017-08-31T22:37:46.666Z,5.37
2017-08-31T22:40:14.135Z,5.83
2017-08-31T22:42:41.590Z,6.67
2017-08-31T22:45:09.059Z,6.80
2017-08-31T22:47:36.527Z,5.57
2017-08-31T22:50:03.995Z,6.33
2017-08-31T22:52:31.459Z,5.10
2017-08-31T22:55:10.635Z,5.67
2017-08-31T23:00:41.514Z,5.10
2017-08-31T23:03:08.975Z,6.33
2017-08-31T23:05:36.445Z,5.33
2017-08-31T23:08:03.907Z,5.03
2017-08-31T23:10:31.378Z,4.43
2017-08-31T23:12:58.831Z,4.40
2017-08-31T23:15:26.303Z,4.60
2017-08-31T23:17:53.764Z,4.87
2017-08-31T23:20:21.989Z,4.37
2017-08-31T23:22:49.452Z,4.27
2017-08-31T23:25:17.630Z,4.63
2017-08-31T23:27:45.082Z,5.07
2017-08-31T23:30:12.556Z,4.40
2017-08-31T23:32:40.006Z,4.07
2017-08-31T23:35:07.474Z,4.33
2017-08-31T23:37:34.939Z,4.37
2017-08-31T23:40:02.408Z,4.37
2017-08-31T23:42:30.636Z,3.80
2017-08-31T23:44:58.107Z,4.17
2017-08-31T23:47:25.566Z,4.73
2017-08-31T23:49:53.030Z,5.67
2017-08-31T23:52:20.499Z,4.10
2017-08-31T23:54:47.983Z,4.80
2017-08-31T23:57:15.451Z,4.23
2017-08-31T23:59:42.923Z,4.40
